KSBA/SBA METAR and TAF weather

Enter ICAO airport designator
Station Type Date Time Source
KSBA METAR 2020/09/15 06:18 UTC NOAA

KSBA 150618Z AUTO 01003KT 3SM BR CLR 16/13 A2999 RMK AO2 T01560133


Station Type Date Time Source
KSBA Decoded METAR 2020/09/15 06:18 UTC NOAA

SANTA BARBARA MUNICIPAL, CA, United States (KSBA) 34-26N 119-51W 3M
Sep 15, 2020 - 02:18 AM EDT / 2020.09.15 0618 UTC
Wind: from the N (010 degrees) at 3 MPH (3 KT):0
Visibility: 3 mile(s):0
Sky conditions: clear
Weather: mist
Temperature: 60.1 F (15.6 C)
Dew Point: 55.9 F (13.3 C)
Relative Humidity: 86%
Pressure (altimeter): 29.99 in. Hg (1015 hPa)
ob: KSBA 150618Z AUTO 01003KT 3SM BR CLR 16/13 A2999 RMK AO2 T01560133
cycle: 6

Station Type Date Time Source
KSBA TAF 2020/09/26 18:45 UTC NOAA

TAF KSBA 261740Z 2618/2718 14006KT P6SM OVC010
FM262000 23007KT P6SM SKC
FM270200 VRB03KT P6SM SKC
FM271400 VRB03KT P6SM OVC007
AMD NOT SKED

Example: see airport list